Time,TemperatureF,DewpointF,PressureIn,WindDirection,WindDirectionDegrees,WindSpeedMPH,WindSpeedGustMPH,Humidity,HourlyPrecipIn,Conditions,Clouds,dailyrainin,SoftwareType,DateUTC
2013-02-21 00:00:00,22.6,11.1,29.93,North,-999,-999.0,-999.0,61,-99.99,,,-99.99,open2300-1.11,2013-02-21 05:00:00,
2013-02-21 00:01:00,22.6,11.1,29.93,North,-999,-999.0,-999.0,61,-99.99,,,-99.99,open2300-1.11,2013-02-21 05:01:00,
2013-02-21 00:03:00,22.6,11.1,29.93,North,-999,-999.0,-999.0,61,-99.99,,,-99.99,open2300-1.11,2013-02-21 05:03:00,
2013-02-21 00:04:00,22.6,11.1,29.93,North,-999,-999.0,-999.0,61,-99.99,,,-99.99,open2300-1.11,2013-02-21 05:04:00,
2013-02-21 00:05:00,22.6,11.1,29.93,North,-999,-999.0,-999.0,61,-99.99,,,-99.99,open2300-1.11,2013-02-21 05:05:00,
2013-02-21 00:07:00,22.6,11.1,29.93,North,-999,-999.0,-999.0,61,-99.99,,,-99.99,open2300-1.11,2013-02-21 05:07:00,
2013-02-21 00:08:00,22.6,11.1,29.93,North,-999,-999.0,-999.0,61,-99.99,,,-99.99,open2300-1.11,2013-02-21 05:08:00,
2013-02-21 00:10:00,22.6,11.1,29.93,North,-999,-999.0,-999.0,61,-99.99,,,-99.99,open2300-1.11,2013-02-21 05:10:00,
2013-02-21 00:11:00,22.6,11.1,29.93,North,-999,-999.0,-999.0,61,-99.99,,,-99.99,open2300-1.11,2013-02-21 05:11:00,
2013-02-21 00:13:00,22.6,11.1,29.93,North,-999,-999.0,-999.0,61,-99.99,,,-99.99,open2300-1.11,2013-02-21 05:13:00,
2013-02-21 00:14:00,22.6,11.1,29.93,North,-999,-999.0,-999.0,61,-99.99,,,-99.99,open2300-1.11,2013-02-21 05:14:00,
2013-02-21 00:15:00,22.6,11.1,29.93,North,-999,-999.0,-999.0,61,-99.99,,,-99.99,open2300-1.11,2013-02-21 05:15:00,
2013-02-21 00:17:00,22.6,11.1,29.93,North,-999,-999.0,-999.0,61,-99.99,,,-99.99,open2300-1.11,2013-02-21 05:17:00,
2013-02-21 00:18:00,22.6,11.1,29.93,North,-999,-999.0,-999.0,61,-99.99,,,-99.99,open2300-1.11,2013-02-21 05:18:00,
2013-02-21 00:22:00,22.6,11.5,29.93,North,-999,-999.0,-999.0,62,-99.99,,,-99.99,open2300-1.11,2013-02-21 05:22:00,
2013-02-21 00:26:00,22.6,11.5,29.93,North,-999,-999.0,-999.0,62,-99.99,,,-99.99,open2300-1.11,2013-02-21 05:26:00,
2013-02-21 00:30:00,22.8,11.7,29.92,North,-999,-999.0,-999.0,62,-99.99,,,-99.99,open2300-1.11,2013-02-21 05:30:00,
2013-02-21 00:32:00,22.8,11.7,29.92,North,-999,-999.0,-999.0,62,-99.99,,,-99.99,open2300-1.11,2013-02-21 05:32:00,
2013-02-21 00:33:00,22.8,11.7,29.92,North,-999,-999.0,-999.0,62,-99.99,,,-99.99,open2300-1.11,2013-02-21 05:33:00,
2013-02-21 00:40:00,23.0,11.8,29.92,North,-999,-999.0,-999.0,62,-99.99,,,-99.99,open2300-1.11,2013-02-21 05:40:00,
2013-02-21 00:41:00,23.2,12.0,29.92,North,-999,-999.0,-999.0,62,-99.99,,,-99.99,open2300-1.11,2013-02-21 05:41:00,
2013-02-21 00:42:00,23.2,12.0,29.92,North,-999,-999.0,-999.0,62,-99.99,,,-99.99,open2300-1.11,2013-02-21 05:42:00,
2013-02-21 00:45:00,23.4,12.2,29.92,North,-999,-999.0,-999.0,62,-99.99,,,-99.99,open2300-1.11,2013-02-21 05:45:00,
2013-02-21 00:52:00,23.5,12.4,29.92,North,-999,-999.0,-999.0,62,-99.99,,,-99.99,open2300-1.11,2013-02-21 05:52:00,
2013-02-21 00:54:00,23.5,12.4,29.92,North,-999,-999.0,-999.0,62,-99.99,,,-99.99,open2300-1.11,2013-02-21 05:54:00,
2013-02-21 00:58:00,23.7,12.5,29.92,North,-999,-999.0,-999.0,62,-99.99,,,-99.99,open2300-1.11,2013-02-21 05:58:00,
2013-02-21 01:05:00,23.9,12.7,29.91,North,-999,-999.0,-999.0,62,-99.99,,,-99.99,open2300-1.11,2013-02-21 06:05:00,
2013-02-21 01:11:00,24.1,12.9,29.92,North,-999,-999.0,-999.0,62,-99.99,,,-99.99,open2300-1.11,2013-02-21 06:11:00,
2013-02-21 01:18:00,24.1,12.9,29.92,North,-999,-999.0,-999.0,62,-99.99,,,-99.99,open2300-1.11,2013-02-21 06:18:00,
2013-02-21 01:19:00,22.6,11.1,29.93,North,-999,-999.0,-999.0,61,-99.99,,,-99.99,open2300-1.11,2013-02-21 06:19:00,
2013-02-21 01:21:00,24.3,13.1,29.92,North,-999,-999.0,-999.0,62,-99.99,,,-99.99,open2300-1.11,2013-02-21 06:21:00,
2013-02-21 01:22:00,24.4,13.2,29.92,North,-999,-999.0,-999.0,62,-99.99,,,-99.99,open2300-1.11,2013-02-21 06:22:00,
2013-02-21 01:25:00,22.6,11.5,29.93,North,-999,-999.0,-999.0,62,-99.99,,,-99.99,open2300-1.11,2013-02-21 06:25:00,
2013-02-21 01:28:00,24.4,13.2,29.92,North,-999,-999.0,-999.0,62,-99.99,,,-99.99,open2300-1.11,2013-02-21 06:28:00,
2013-02-21 01:34:00,22.8,11.7,29.92,North,-999,-999.0,-999.0,62,-99.99,,,-99.99,open2300-1.11,2013-02-21 06:34:00,
2013-02-21 01:35:00,24.4,13.2,29.92,North,-999,-999.0,-999.0,62,-99.99,,,-99.99,open2300-1.11,2013-02-21 06:35:00,
2013-02-21 01:36:00,24.4,13.2,29.92,North,-999,-999.0,-999.0,62,-99.99,,,-99.99,open2300-1.11,2013-02-21 06:36:00,
2013-02-21 01:44:00,23.2,12.0,29.92,North,-999,-999.0,-999.0,62,-99.99,,,-99.99,open2300-1.11,2013-02-21 06:44:00,
2013-02-21 01:45:00,24.3,13.1,29.91,North,-999,-999.0,-999.0,62,-99.99,,,-99.99,open2300-1.11,2013-02-21 06:45:00,
2013-02-21 01:48:00,24.3,13.1,29.91,North,-999,-999.0,-999.0,62,-99.99,,,-99.99,open2300-1.11,2013-02-21 06:48:00,
2013-02-21 01:49:00,23.5,12.4,29.92,North,-999,-999.0,-999.0,62,-99.99,,,-99.99,open2300-1.11,2013-02-21 06:49:00,
2013-02-21 01:50:00,24.3,13.1,29.92,North,-999,-999.0,-999.0,62,-99.99,,,-99.99,open2300-1.11,2013-02-21 06:50:00,
2013-02-21 01:56:00,23.5,12.4,29.92,North,-999,-999.0,-999.0,62,-99.99,,,-99.99,open2300-1.11,2013-02-21 06:56:00,
2013-02-21 02:01:00,23.7,12.5,29.92,North,-999,-999.0,-999.0,62,-99.99,,,-99.99,open2300-1.11,2013-02-21 07:01:00,
2013-02-21 02:07:00,23.9,12.7,29.91,North,-999,-999.0,-999.0,62,-99.99,,,-99.99,open2300-1.11,2013-02-21 07:07:00,
2013-02-21 02:12:00,24.1,12.9,29.91,North,-999,-999.0,-999.0,62,-99.99,,,-99.99,open2300-1.11,2013-02-21 07:12:00,
2013-02-21 02:19:00,24.3,13.1,29.92,North,-999,-999.0,-999.0,62,-99.99,,,-99.99,open2300-1.11,2013-02-21 07:19:00,
2013-02-21 02:26:00,24.4,13.2,29.92,North,-999,-999.0,-999.0,62,-99.99,,,-99.99,open2300-1.11,2013-02-21 07:26:00,
2013-02-21 02:32:00,24.4,13.2,29.92,North,-999,-999.0,-999.0,62,-99.99,,,-99.99,open2300-1.11,2013-02-21 07:32:00,
2013-02-21 02:37:00,24.4,13.2,29.92,North,-999,-999.0,-999.0,62,-99.99,,,-99.99,open2300-1.11,2013-02-21 07:37:00,
2013-02-21 02:43:00,24.4,13.2,29.91,North,-999,-999.0,-999.0,62,-99.99,,,-99.99,open2300-1.11,2013-02-21 07:43:00,
2013-02-21 02:51:00,24.4,13.2,29.91,North,-999,-999.0,-999.0,62,-99.99,,,-99.99,open2300-1.11,2013-02-21 07:51:00,
2013-02-21 02:57:00,24.4,13.2,29.91,North,-999,-999.0,-999.0,62,-99.99,,,-99.99,open2300-1.11,2013-02-21 07:57:00,
2013-02-21 03:02:00,24.4,13.2,29.90,North,-999,-999.0,-999.0,62,-99.99,,,-99.99,open2300-1.11,2013-02-21 08:02:00,
2013-02-21 03:07:00,24.4,13.2,29.91,North,-999,-999.0,-999.0,62,-99.99,,,-99.99,open2300-1.11,2013-02-21 08:07:00,
2013-02-21 03:13:00,24.4,13.2,29.91,North,-999,-999.0,-999.0,62,-99.99,,,-99.99,open2300-1.11,2013-02-21 08:13:00,
2013-02-21 03:18:00,24.4,13.2,29.91,North,-999,-999.0,-999.0,62,-99.99,,,-99.99,open2300-1.11,2013-02-21 08:18:00,
2013-02-21 03:24:00,24.4,13.6,29.91,North,-999,-999.0,-999.0,63,-99.99,,,-99.99,open2300-1.11,2013-02-21 08:24:00,
2013-02-21 03:29:00,24.6,13.8,29.91,North,-999,-999.0,-999.0,63,-99.99,,,-99.99,open2300-1.11,2013-02-21 08:29:00,
2013-02-21 03:35:00,24.6,13.8,29.90,North,-999,-999.0,-999.0,63,-99.99,,,-99.99,open2300-1.11,2013-02-21 08:35:00,
2013-02-21 03:41:00,24.6,13.8,29.90,North,-999,-999.0,-999.0,63,-99.99,,,-99.99,open2300-1.11,2013-02-21 08:41:00,
2013-02-21 03:46:00,24.6,13.8,29.90,North,-999,-999.0,-999.0,63,-99.99,,,-99.99,open2300-1.11,2013-02-21 08:46:00,
2013-02-21 03:52:00,24.6,13.8,29.91,North,-999,-999.0,-999.0,63,-99.99,,,-99.99,open2300-1.11,2013-02-21 08:52:00,
2013-02-21 03:57:00,24.6,13.8,29.91,North,-999,-999.0,-999.0,63,-99.99,,,-99.99,open2300-1.11,2013-02-21 08:57:00,
2013-02-21 04:02:00,24.6,13.8,29.90,North,-999,-999.0,-999.0,63,-99.99,,,-99.99,open2300-1.11,2013-02-21 09:02:00,
2013-02-21 04:08:00,24.6,13.8,29.91,North,-999,-999.0,-999.0,63,-99.99,,,-99.99,open2300-1.11,2013-02-21 09:08:00,
2013-02-21 04:13:00,24.4,13.6,29.91,North,-999,-999.0,-999.0,63,-99.99,,,-99.99,open2300-1.11,2013-02-21 09:13:00,
2013-02-21 04:18:00,24.4,13.6,29.91,North,-999,-999.0,-999.0,63,-99.99,,,-99.99,open2300-1.11,2013-02-21 09:18:00,
2013-02-21 04:25:00,24.4,13.6,29.91,North,-999,-999.0,-999.0,63,-99.99,,,-99.99,open2300-1.11,2013-02-21 09:25:00,
2013-02-21 04:30:00,24.4,13.6,29.92,North,-999,-999.0,-999.0,63,-99.99,,,-99.99,open2300-1.11,2013-02-21 09:30:00,
2013-02-21 04:35:00,24.4,13.9,29.91,North,-999,-999.0,-999.0,64,-99.99,,,-99.99,open2300-1.11,2013-02-21 09:35:00,
2013-02-21 04:41:00,24.4,13.9,29.92,North,-999,-999.0,-999.0,64,-99.99,,,-99.99,open2300-1.11,2013-02-21 09:41:00,
2013-02-21 04:46:00,24.4,13.6,29.92,North,-999,-999.0,-999.0,63,-99.99,,,-99.99,open2300-1.11,2013-02-21 09:46:00,
2013-02-21 04:51:00,24.4,13.6,29.92,North,-999,-999.0,-999.0,63,-99.99,,,-99.99,open2300-1.11,2013-02-21 09:51:00,
2013-02-21 04:57:00,24.4,13.6,29.92,North,-999,-999.0,-999.0,63,-99.99,,,-99.99,open2300-1.11,2013-02-21 09:57:00,
2013-02-21 05:03:00,24.4,13.6,29.92,North,-999,-999.0,-999.0,63,-99.99,,,-99.99,open2300-1.11,2013-02-21 10:03:00,
2013-02-21 05:08:00,24.4,13.6,29.92,North,-999,-999.0,-999.0,63,-99.99,,,-99.99,open2300-1.11,2013-02-21 10:08:00,
2013-02-21 05:14:00,24.4,13.6,29.92,North,-999,-999.0,-999.0,63,-99.99,,,-99.99,open2300-1.11,2013-02-21 10:14:00,
2013-02-21 05:19:00,24.6,13.8,29.92,North,-999,-999.0,-999.0,63,-99.99,,,-99.99,open2300-1.11,2013-02-21 10:19:00,
2013-02-21 05:25:00,24.6,13.8,29.93,North,-999,-999.0,-999.0,63,-99.99,,,-99.99,open2300-1.11,2013-02-21 10:25:00,
2013-02-21 05:30:00,24.8,13.9,29.93,North,-999,-999.0,-999.0,63,-99.99,,,-99.99,open2300-1.11,2013-02-21 10:30:00,
2013-02-21 05:36:00,25.0,14.1,29.93,North,-999,-999.0,-999.0,63,-99.99,,,-99.99,open2300-1.11,2013-02-21 10:36:00,
2013-02-21 05:41:00,25.0,14.1,29.93,North,-999,-999.0,-999.0,63,-99.99,,,-99.99,open2300-1.11,2013-02-21 10:41:00,
2013-02-21 05:47:00,25.0,14.1,29.93,North,-999,-999.0,-999.0,63,-99.99,,,-99.99,open2300-1.11,2013-02-21 10:47:00,
2013-02-21 05:53:00,25.0,14.1,29.93,North,-999,-999.0,-999.0,63,-99.99,,,-99.99,open2300-1.11,2013-02-21 10:53:00,
2013-02-21 05:58:00,25.0,14.1,29.93,North,-999,-999.0,-999.0,63,-99.99,,,-99.99,open2300-1.11,2013-02-21 10:58:00,
2013-02-21 06:04:00,25.0,14.1,29.93,North,-999,-999.0,-999.0,63,-99.99,,,-99.99,open2300-1.11,2013-02-21 11:04:00,
2013-02-21 06:09:00,25.0,13.8,29.93,North,-999,-999.0,-999.0,62,-99.99,,,-99.99,open2300-1.11,2013-02-21 11:09:00,
2013-02-21 06:15:00,25.0,13.8,29.94,North,-999,-999.0,-999.0,62,-99.99,,,-99.99,open2300-1.11,2013-02-21 11:15:00,
2013-02-21 06:20:00,25.0,13.8,29.94,North,-999,-999.0,-999.0,62,-99.99,,,-99.99,open2300-1.11,2013-02-21 11:20:00,
2013-02-21 06:26:00,25.0,13.8,29.93,North,-999,-999.0,-999.0,62,-99.99,,,-99.99,open2300-1.11,2013-02-21 11:26:00,
2013-02-21 06:31:00,25.0,13.8,29.94,North,-999,-999.0,-999.0,62,-99.99,,,-99.99,open2300-1.11,2013-02-21 11:31:00,
2013-02-21 06:36:00,25.0,14.1,29.94,North,-999,-999.0,-999.0,63,-99.99,,,-99.99,open2300-1.11,2013-02-21 11:36:00,
2013-02-21 06:42:00,25.0,14.1,29.94,North,-999,-999.0,-999.0,63,-99.99,,,-99.99,open2300-1.11,2013-02-21 11:42:00,
2013-02-21 06:47:00,24.6,13.4,29.94,North,-999,-999.0,-999.0,62,-99.99,,,-99.99,open2300-1.11,2013-02-21 11:47:00,
2013-02-21 06:53:00,24.6,13.4,29.94,North,-999,-999.0,-999.0,62,-99.99,,,-99.99,open2300-1.11,2013-02-21 11:53:00,
2013-02-21 06:58:00,24.6,13.1,29.94,North,-999,-999.0,-999.0,61,-99.99,,,-99.99,open2300-1.11,2013-02-21 11:58:00,
2013-02-21 07:03:00,24.6,13.1,29.94,North,-999,-999.0,-999.0,61,-99.99,,,-99.99,open2300-1.11,2013-02-21 12:03:00,
2013-02-21 07:09:00,24.6,13.1,29.95,North,-999,-999.0,-999.0,61,-99.99,,,-99.99,open2300-1.11,2013-02-21 12:09:00,
2013-02-21 07:14:00,25.0,13.4,29.95,North,-999,-999.0,-999.0,60,-99.99,,,-99.99,open2300-1.11,2013-02-21 12:14:00,
2013-02-21 07:20:00,25.0,13.1,29.95,North,-999,-999.0,-999.0,60,-99.99,,,-99.99,open2300-1.11,2013-02-21 12:20:00,
2013-02-21 07:25:00,25.2,13.2,29.95,North,-999,-999.0,-999.0,60,-99.99,,,-99.99,open2300-1.11,2013-02-21 12:25:00,
2013-02-21 07:31:00,25.3,13.4,29.95,North,-999,-999.0,-999.0,60,-99.99,,,-99.99,open2300-1.11,2013-02-21 12:31:00,
2013-02-21 07:36:00,25.5,13.4,29.94,North,-999,-999.0,-999.0,59,-99.99,,,-99.99,open2300-1.11,2013-02-21 12:36:00,
2013-02-21 07:41:00,25.7,13.7,29.94,North,-999,-999.0,-999.0,60,-99.99,,,-99.99,open2300-1.11,2013-02-21 12:41:00,
2013-02-21 07:47:00,25.9,13.5,29.95,North,-999,-999.0,-999.0,59,-99.99,,,-99.99,open2300-1.11,2013-02-21 12:47:00,
2013-02-21 07:52:00,26.1,13.6,29.95,North,-999,-999.0,-999.0,59,-99.99,,,-99.99,open2300-1.11,2013-02-21 12:52:00,
2013-02-21 07:58:00,26.2,13.8,29.96,North,-999,-999.0,-999.0,59,-99.99,,,-99.99,open2300-1.11,2013-02-21 12:58:00,
2013-02-21 08:03:00,26.4,14.0,29.95,North,-999,-999.0,-999.0,59,-99.99,,,-99.99,open2300-1.11,2013-02-21 13:03:00,
2013-02-21 08:08:00,26.6,13.7,29.95,North,-999,-999.0,-999.0,58,-99.99,,,-99.99,open2300-1.11,2013-02-21 13:08:00,
2013-02-21 08:14:00,27.0,14.1,29.95,North,-999,-999.0,-999.0,58,-99.99,,,-99.99,open2300-1.11,2013-02-21 13:14:00,
2013-02-21 08:19:00,27.3,14.4,29.95,North,-999,-999.0,-999.0,58,-99.99,,,-99.99,open2300-1.11,2013-02-21 13:19:00,
2013-02-21 08:25:00,27.5,14.6,29.95,North,-999,-999.0,-999.0,58,-99.99,,,-99.99,open2300-1.11,2013-02-21 13:25:00,
2013-02-21 08:30:00,27.7,14.8,29.95,North,-999,-999.0,-999.0,58,-99.99,,,-99.99,open2300-1.11,2013-02-21 13:30:00,
2013-02-21 08:35:00,27.7,14.8,29.95,North,-999,-999.0,-999.0,58,-99.99,,,-99.99,open2300-1.11,2013-02-21 13:35:00,
2013-02-21 08:41:00,28.0,15.1,29.96,North,-999,-999.0,-999.0,58,-99.99,,,-99.99,open2300-1.11,2013-02-21 13:41:00,
2013-02-21 08:46:00,28.2,15.3,29.95,North,-999,-999.0,-999.0,58,-99.99,,,-99.99,open2300-1.11,2013-02-21 13:46:00,
2013-02-21 08:51:00,30.0,16.6,29.96,North,-999,-999.0,-999.0,57,-99.99,,,-99.99,open2300-1.11,2013-02-21 13:51:00,
2013-02-21 08:57:00,31.6,17.3,29.96,North,-999,-999.0,-999.0,55,-99.99,,,-99.99,open2300-1.11,2013-02-21 13:57:00,
2013-02-21 09:03:00,32.7,17.4,29.96,North,-999,-999.0,-999.0,53,-99.99,,,-99.99,open2300-1.11,2013-02-21 14:03:00,
2013-02-21 09:08:00,32.2,16.5,29.96,North,-999,-999.0,-999.0,52,-99.99,,,-99.99,open2300-1.11,2013-02-21 14:08:00,
2013-02-21 09:13:00,31.3,15.6,29.96,North,-999,-999.0,-999.0,52,-99.99,,,-99.99,open2300-1.11,2013-02-21 14:13:00,
2013-02-21 09:19:00,30.2,14.6,29.96,North,-999,-999.0,-999.0,52,-99.99,,,-99.99,open2300-1.11,2013-02-21 14:19:00,
2013-02-21 09:25:00,29.8,14.7,29.97,North,-999,-999.0,-999.0,53,-99.99,,,-99.99,open2300-1.11,2013-02-21 14:25:00,
2013-02-21 09:30:00,29.7,15.0,29.97,North,-999,-999.0,-999.0,54,-99.99,,,-99.99,open2300-1.11,2013-02-21 14:30:00,
2013-02-21 09:36:00,30.0,15.3,29.97,North,-999,-999.0,-999.0,54,-99.99,,,-99.99,open2300-1.11,2013-02-21 14:36:00,
2013-02-21 09:42:00,30.6,15.8,29.97,North,-999,-999.0,-999.0,54,-99.99,,,-99.99,open2300-1.11,2013-02-21 14:42:00,
2013-02-21 09:48:00,31.3,16.5,29.97,North,-999,-999.0,-999.0,54,-99.99,,,-99.99,open2300-1.11,2013-02-21 14:48:00,
2013-02-21 09:53:00,32.5,17.2,29.97,North,-999,-999.0,-999.0,53,-99.99,,,-99.99,open2300-1.11,2013-02-21 14:53:00,
2013-02-21 09:58:00,32.7,17.0,29.97,North,-999,-999.0,-999.0,52,-99.99,,,-99.99,open2300-1.11,2013-02-21 14:58:00,
2013-02-21 10:04:00,32.9,16.7,29.97,North,-999,-999.0,-999.0,51,-99.99,,,-99.99,open2300-1.11,2013-02-21 15:04:00,
2013-02-21 10:09:00,32.7,16.5,29.97,North,-999,-999.0,-999.0,51,-99.99,,,-99.99,open2300-1.11,2013-02-21 15:09:00,
2013-02-21 10:15:00,32.7,16.5,29.97,North,-999,-999.0,-999.0,51,-99.99,,,-99.99,open2300-1.11,2013-02-21 15:15:00,
2013-02-21 10:21:00,32.7,16.1,29.98,North,-999,-999.0,-999.0,50,-99.99,,,-99.99,open2300-1.11,2013-02-21 15:21:00,
2013-02-21 10:26:00,32.7,16.1,29.98,North,-999,-999.0,-999.0,50,-99.99,,,-99.99,open2300-1.11,2013-02-21 15:26:00,
2013-02-21 10:32:00,32.7,16.1,29.98,North,-999,-999.0,-999.0,50,-99.99,,,-99.99,open2300-1.11,2013-02-21 15:32:00,
2013-02-21 10:38:00,32.4,15.8,29.98,North,-999,-999.0,-999.0,50,-99.99,,,-99.99,open2300-1.11,2013-02-21 15:38:00,
2013-02-21 10:43:00,32.4,16.2,29.98,North,-999,-999.0,-999.0,51,-99.99,,,-99.99,open2300-1.11,2013-02-21 15:43:00,
2013-02-21 10:49:00,32.5,16.4,29.98,North,-999,-999.0,-999.0,51,-99.99,,,-99.99,open2300-1.11,2013-02-21 15:49:00,
2013-02-21 10:54:00,32.4,16.2,29.98,North,-999,-999.0,-999.0,51,-99.99,,,-99.99,open2300-1.11,2013-02-21 15:54:00,
2013-02-21 11:00:00,32.2,16.0,29.98,North,-999,-999.0,-999.0,51,-99.99,,,-99.99,open2300-1.11,2013-02-21 16:00:00,
2013-02-21 11:05:00,32.2,16.0,29.98,North,-999,-999.0,-999.0,51,-99.99,,,-99.99,open2300-1.11,2013-02-21 16:05:00,
2013-02-21 11:10:00,31.8,15.3,29.98,North,-999,-999.0,-999.0,50,-99.99,,,-99.99,open2300-1.11,2013-02-21 16:10:00,
2013-02-21 11:16:00,31.8,15.7,29.98,North,-999,-999.0,-999.0,51,-99.99,,,-99.99,open2300-1.11,2013-02-21 16:16:00,
2013-02-21 11:21:00,31.6,15.5,29.97,North,-999,-999.0,-999.0,51,-99.99,,,-99.99,open2300-1.11,2013-02-21 16:21:00,
2013-02-21 11:27:00,31.6,15.5,29.98,North,-999,-999.0,-999.0,51,-99.99,,,-99.99,open2300-1.11,2013-02-21 16:27:00,
2013-02-21 11:33:00,31.6,15.5,29.97,North,-999,-999.0,-999.0,51,-99.99,,,-99.99,open2300-1.11,2013-02-21 16:33:00,
2013-02-21 11:38:00,32.2,16.0,29.96,North,-999,-999.0,-999.0,51,-99.99,,,-99.99,open2300-1.11,2013-02-21 16:38:00,
2013-02-21 11:43:00,32.5,16.4,29.96,North,-999,-999.0,-999.0,51,-99.99,,,-99.99,open2300-1.11,2013-02-21 16:43:00,
2013-02-21 11:49:00,32.7,15.6,29.97,North,-999,-999.0,-999.0,49,-99.99,,,-99.99,open2300-1.11,2013-02-21 16:49:00,
2013-02-21 11:54:00,32.5,15.9,29.97,North,-999,-999.0,-999.0,50,-99.99,,,-99.99,open2300-1.11,2013-02-21 16:54:00,
2013-02-21 12:00:00,32.2,15.1,29.96,North,-999,-999.0,-999.0,49,-99.99,,,-99.99,open2300-1.11,2013-02-21 17:00:00,
2013-02-21 12:05:00,32.0,15.4,29.96,North,-999,-999.0,-999.0,50,-99.99,,,-99.99,open2300-1.11,2013-02-21 17:05:00,
2013-02-21 12:11:00,32.4,15.8,29.95,North,-999,-999.0,-999.0,50,-99.99,,,-99.99,open2300-1.11,2013-02-21 17:11:00,
2013-02-21 12:17:00,32.9,16.2,29.95,North,-999,-999.0,-999.0,50,-99.99,,,-99.99,open2300-1.11,2013-02-21 17:17:00,
2013-02-21 12:22:00,33.6,16.9,29.95,North,-999,-999.0,-999.0,50,-99.99,,,-99.99,open2300-1.11,2013-02-21 17:22:00,
2013-02-21 12:27:00,34.5,16.8,29.95,North,-999,-999.0,-999.0,48,-99.99,,,-99.99,open2300-1.11,2013-02-21 17:27:00,
2013-02-21 12:33:00,34.9,17.1,29.94,North,-999,-999.0,-999.0,48,-99.99,,,-99.99,open2300-1.11,2013-02-21 17:33:00,
2013-02-21 12:38:00,35.4,17.1,29.94,North,-999,-999.0,-999.0,47,-99.99,,,-99.99,open2300-1.11,2013-02-21 17:38:00,
2013-02-21 12:44:00,35.4,17.1,29.95,North,-999,-999.0,-999.0,47,-99.99,,,-99.99,open2300-1.11,2013-02-21 17:44:00,
2013-02-21 12:50:00,34.7,15.9,29.95,North,-999,-999.0,-999.0,46,-99.99,,,-99.99,open2300-1.11,2013-02-21 17:50:00,
2013-02-21 12:55:00,34.7,15.9,29.94,North,-999,-999.0,-999.0,46,-99.99,,,-99.99,open2300-1.11,2013-02-21 17:55:00,
2013-02-21 13:01:00,34.9,16.1,29.94,North,-999,-999.0,-999.0,46,-99.99,,,-99.99,open2300-1.11,2013-02-21 18:01:00,
2013-02-21 13:07:00,34.9,16.1,29.94,North,-999,-999.0,-999.0,46,-99.99,,,-99.99,open2300-1.11,2013-02-21 18:07:00,
2013-02-21 13:12:00,35.1,16.2,29.95,North,-999,-999.0,-999.0,46,-99.99,,,-99.99,open2300-1.11,2013-02-21 18:12:00,
2013-02-21 13:18:00,34.9,16.1,29.95,North,-999,-999.0,-999.0,46,-99.99,,,-99.99,open2300-1.11,2013-02-21 18:18:00,
2013-02-21 13:23:00,34.9,15.6,29.94,North,-999,-999.0,-999.0,45,-99.99,,,-99.99,open2300-1.11,2013-02-21 18:23:00,
2013-02-21 13:29:00,35.1,15.7,29.94,North,-999,-999.0,-999.0,45,-99.99,,,-99.99,open2300-1.11,2013-02-21 18:29:00,
2013-02-21 13:34:00,35.2,15.9,29.95,North,-999,-999.0,-999.0,45,-99.99,,,-99.99,open2300-1.11,2013-02-21 18:34:00,
2013-02-21 13:40:00,35.4,16.1,29.95,North,-999,-999.0,-999.0,45,-99.99,,,-99.99,open2300-1.11,2013-02-21 18:40:00,
2013-02-21 13:45:00,35.4,16.1,29.95,North,-999,-999.0,-999.0,45,-99.99,,,-99.99,open2300-1.11,2013-02-21 18:45:00,
2013-02-21 13:51:00,35.8,16.9,29.95,North,-999,-999.0,-999.0,46,-99.99,,,-99.99,open2300-1.11,2013-02-21 18:51:00,
2013-02-21 13:56:00,36.0,16.6,29.96,North,-999,-999.0,-999.0,45,-99.99,,,-99.99,open2300-1.11,2013-02-21 18:56:00,
2013-02-21 14:02:00,35.8,16.4,29.95,North,-999,-999.0,-999.0,45,-99.99,,,-99.99,open2300-1.11,2013-02-21 19:02:00,
2013-02-21 14:07:00,35.8,16.4,29.96,North,-999,-999.0,-999.0,45,-99.99,,,-99.99,open2300-1.11,2013-02-21 19:07:00,
2013-02-21 14:13:00,36.0,16.6,29.95,North,-999,-999.0,-999.0,45,-99.99,,,-99.99,open2300-1.11,2013-02-21 19:13:00,
2013-02-21 14:19:00,35.8,16.9,29.96,North,-999,-999.0,-999.0,46,-99.99,,,-99.99,open2300-1.11,2013-02-21 19:19:00,
2013-02-21 14:25:00,35.8,16.9,29.96,North,-999,-999.0,-999.0,46,-99.99,,,-99.99,open2300-1.11,2013-02-21 19:25:00,
2013-02-21 14:30:00,35.4,16.1,29.96,North,-999,-999.0,-999.0,45,-99.99,,,-99.99,open2300-1.11,2013-02-21 19:30:00,
2013-02-21 14:36:00,35.8,16.9,29.96,North,-999,-999.0,-999.0,46,-99.99,,,-99.99,open2300-1.11,2013-02-21 19:36:00,
2013-02-21 14:41:00,35.8,16.9,29.96,North,-999,-999.0,-999.0,46,-99.99,,,-99.99,open2300-1.11,2013-02-21 19:41:00,
2013-02-21 14:47:00,35.8,16.9,29.96,North,-999,-999.0,-999.0,46,-99.99,,,-99.99,open2300-1.11,2013-02-21 19:47:00,
2013-02-21 14:52:00,35.8,16.9,29.97,North,-999,-999.0,-999.0,46,-99.99,,,-99.99,open2300-1.11,2013-02-21 19:52:00,
2013-02-21 14:57:00,35.8,16.9,29.97,North,-999,-999.0,-999.0,46,-99.99,,,-99.99,open2300-1.11,2013-02-21 19:57:00,
2013-02-21 15:03:00,35.8,16.9,29.96,North,-999,-999.0,-999.0,46,-99.99,,,-99.99,open2300-1.11,2013-02-21 20:03:00,
2013-02-21 15:08:00,35.8,16.9,29.96,North,-999,-999.0,-999.0,46,-99.99,,,-99.99,open2300-1.11,2013-02-21 20:08:00,
2013-02-21 15:14:00,35.8,16.9,29.96,North,-999,-999.0,-999.0,46,-99.99,,,-99.99,open2300-1.11,2013-02-21 20:14:00,
2013-02-21 15:19:00,35.8,16.9,29.96,North,-999,-999.0,-999.0,46,-99.99,,,-99.99,open2300-1.11,2013-02-21 20:19:00,
2013-02-21 15:25:00,36.0,16.6,29.97,North,-999,-999.0,-999.0,45,-99.99,,,-99.99,open2300-1.11,2013-02-21 20:25:00,
2013-02-21 15:30:00,36.0,16.6,29.97,North,-999,-999.0,-999.0,45,-99.99,,,-99.99,open2300-1.11,2013-02-21 20:30:00,
2013-02-21 15:37:00,36.1,17.3,29.96,North,-999,-999.0,-999.0,46,-99.99,,,-99.99,open2300-1.11,2013-02-21 20:37:00,
2013-02-21 15:42:00,36.1,17.3,29.96,North,-999,-999.0,-999.0,46,-99.99,,,-99.99,open2300-1.11,2013-02-21 20:42:00,
2013-02-21 15:48:00,36.1,17.3,29.97,North,-999,-999.0,-999.0,46,-99.99,,,-99.99,open2300-1.11,2013-02-21 20:48:00,
2013-02-21 15:54:00,35.8,16.9,29.97,North,-999,-999.0,-999.0,46,-99.99,,,-99.99,open2300-1.11,2013-02-21 20:54:00,
2013-02-21 16:00:00,35.6,16.8,29.97,North,-999,-999.0,-999.0,46,-99.99,,,-99.99,open2300-1.11,2013-02-21 21:00:00,
2013-02-21 16:05:00,35.8,16.9,29.98,North,-999,-999.0,-999.0,46,-99.99,,,-99.99,open2300-1.11,2013-02-21 21:05:00,
2013-02-21 16:11:00,35.8,17.5,29.98,North,-999,-999.0,-999.0,47,-99.99,,,-99.99,open2300-1.11,2013-02-21 21:11:00,
2013-02-21 16:16:00,35.8,17.5,29.98,North,-999,-999.0,-999.0,47,-99.99,,,-99.99,open2300-1.11,2013-02-21 21:16:00,
2013-02-21 16:22:00,35.4,16.6,29.99,North,-999,-999.0,-999.0,46,-99.99,,,-99.99,open2300-1.11,2013-02-21 21:22:00,
2013-02-21 16:27:00,35.2,16.9,29.99,North,-999,-999.0,-999.0,47,-99.99,,,-99.99,open2300-1.11,2013-02-21 21:27:00,
2013-02-21 16:33:00,35.2,16.4,30.00,North,-999,-999.0,-999.0,46,-99.99,,,-99.99,open2300-1.11,2013-02-21 21:33:00,
2013-02-21 16:39:00,34.9,16.6,30.00,North,-999,-999.0,-999.0,47,-99.99,,,-99.99,open2300-1.11,2013-02-21 21:39:00,
2013-02-21 16:44:00,34.5,16.2,30.01,North,-999,-999.0,-999.0,47,-99.99,,,-99.99,open2300-1.11,2013-02-21 21:44:00,
2013-02-21 16:50:00,34.3,16.1,30.01,North,-999,-999.0,-999.0,47,-99.99,,,-99.99,open2300-1.11,2013-02-21 21:50:00,
2013-02-21 16:55:00,34.3,16.1,30.02,North,-999,-999.0,-999.0,47,-99.99,,,-99.99,open2300-1.11,2013-02-21 21:55:00,
2013-02-21 17:01:00,34.0,15.7,30.02,North,-999,-999.0,-999.0,47,-99.99,,,-99.99,open2300-1.11,2013-02-21 22:01:00,
2013-02-21 17:06:00,33.6,15.9,30.02,North,-999,-999.0,-999.0,48,-99.99,,,-99.99,open2300-1.11,2013-02-21 22:06:00,
2013-02-21 17:12:00,33.3,15.6,30.03,North,-999,-999.0,-999.0,48,-99.99,,,-99.99,open2300-1.11,2013-02-21 22:12:00,
2013-02-21 17:17:00,32.7,15.6,30.03,North,-999,-999.0,-999.0,49,-99.99,,,-99.99,open2300-1.11,2013-02-21 22:17:00,
2013-02-21 17:23:00,32.2,15.6,30.03,North,-999,-999.0,-999.0,50,-99.99,,,-99.99,open2300-1.11,2013-02-21 22:23:00,
2013-02-21 17:28:00,31.8,15.3,30.03,North,-999,-999.0,-999.0,50,-99.99,,,-99.99,open2300-1.11,2013-02-21 22:28:00,
2013-02-21 17:34:00,31.6,15.5,30.04,North,-999,-999.0,-999.0,51,-99.99,,,-99.99,open2300-1.11,2013-02-21 22:34:00,
2013-02-21 17:40:00,31.1,15.0,30.05,North,-999,-999.0,-999.0,51,-99.99,,,-99.99,open2300-1.11,2013-02-21 22:40:00,
2013-02-21 17:45:00,30.7,15.1,30.05,North,-999,-999.0,-999.0,52,-99.99,,,-99.99,open2300-1.11,2013-02-21 22:45:00,
2013-02-21 17:51:00,30.2,14.6,30.06,North,-999,-999.0,-999.0,52,-99.99,,,-99.99,open2300-1.11,2013-02-21 22:51:00,
2013-02-21 17:56:00,30.0,14.9,30.05,North,-999,-999.0,-999.0,53,-99.99,,,-99.99,open2300-1.11,2013-02-21 22:56:00,
2013-02-21 18:02:00,29.8,14.7,30.05,North,-999,-999.0,-999.0,53,-99.99,,,-99.99,open2300-1.11,2013-02-21 23:02:00,
2013-02-21 18:07:00,29.7,15.0,30.04,North,-999,-999.0,-999.0,54,-99.99,,,-99.99,open2300-1.11,2013-02-21 23:07:00,
2013-02-21 18:12:00,29.5,14.8,30.04,North,-999,-999.0,-999.0,54,-99.99,,,-99.99,open2300-1.11,2013-02-21 23:12:00,
2013-02-21 18:18:00,29.3,14.7,30.04,North,-999,-999.0,-999.0,54,-99.99,,,-99.99,open2300-1.11,2013-02-21 23:18:00,
2013-02-21 18:24:00,29.1,14.9,30.06,North,-999,-999.0,-999.0,55,-99.99,,,-99.99,open2300-1.11,2013-02-21 23:24:00,
2013-02-21 18:29:00,29.1,14.9,30.05,North,-999,-999.0,-999.0,55,-99.99,,,-99.99,open2300-1.11,2013-02-21 23:29:00,
2013-02-21 18:34:00,28.9,14.8,30.06,North,-999,-999.0,-999.0,55,-99.99,,,-99.99,open2300-1.11,2013-02-21 23:34:00,
2013-02-21 18:40:00,28.8,14.6,30.07,North,-999,-999.0,-999.0,55,-99.99,,,-99.99,open2300-1.11,2013-02-21 23:40:00,
2013-02-21 18:45:00,28.6,14.4,30.09,North,-999,-999.0,-999.0,55,-99.99,,,-99.99,open2300-1.11,2013-02-21 23:45:00,
2013-02-21 18:51:00,28.6,14.4,30.09,North,-999,-999.0,-999.0,55,-99.99,,,-99.99,open2300-1.11,2013-02-21 23:51:00,
2013-02-21 18:57:00,28.2,14.1,30.10,North,-999,-999.0,-999.0,55,-99.99,,,-99.99,open2300-1.11,2013-02-21 23:57:00,
2013-02-21 19:02:00,28.2,14.5,30.09,North,-999,-999.0,-999.0,56,-99.99,,,-99.99,open2300-1.11,2013-02-22 00:02:00,
2013-02-21 19:08:00,28.0,14.3,30.10,North,-999,-999.0,-999.0,56,-99.99,,,-99.99,open2300-1.11,2013-02-22 00:08:00,
2013-02-21 19:13:00,28.0,14.3,30.11,North,-999,-999.0,-999.0,56,-99.99,,,-99.99,open2300-1.11,2013-02-22 00:13:00,
2013-02-21 19:19:00,27.7,14.0,30.13,North,-999,-999.0,-999.0,56,-99.99,,,-99.99,open2300-1.11,2013-02-22 00:19:00,
2013-02-21 19:25:00,27.7,14.4,30.13,North,-999,-999.0,-999.0,57,-99.99,,,-99.99,open2300-1.11,2013-02-22 00:25:00,
2013-02-21 19:30:00,27.3,14.0,30.13,North,-999,-999.0,-999.0,57,-99.99,,,-99.99,open2300-1.11,2013-02-22 00:30:00,
2013-02-21 19:35:00,27.1,14.2,30.13,North,-999,-999.0,-999.0,58,-99.99,,,-99.99,open2300-1.11,2013-02-22 00:35:00,
2013-02-21 19:41:00,26.8,13.9,30.15,North,-999,-999.0,-999.0,58,-99.99,,,-99.99,open2300-1.11,2013-02-22 00:41:00,
2013-02-21 19:47:00,26.6,13.7,30.15,North,-999,-999.0,-999.0,58,-99.99,,,-99.99,open2300-1.11,2013-02-22 00:47:00,
2013-02-21 19:52:00,26.4,13.6,30.16,North,-999,-999.0,-999.0,58,-99.99,,,-99.99,open2300-1.11,2013-02-22 00:52:00,
2013-02-21 19:58:00,26.2,13.4,30.17,North,-999,-999.0,-999.0,58,-99.99,,,-99.99,open2300-1.11,2013-02-22 00:58:00,
2013-02-21 20:04:00,25.9,13.1,30.17,North,-999,-999.0,-999.0,58,-99.99,,,-99.99,open2300-1.11,2013-02-22 01:04:00,
2013-02-21 20:09:00,25.7,13.3,30.19,North,-999,-999.0,-999.0,59,-99.99,,,-99.99,open2300-1.11,2013-02-22 01:09:00,
2013-02-21 20:15:00,25.5,13.1,30.18,North,-999,-999.0,-999.0,59,-99.99,,,-99.99,open2300-1.11,2013-02-22 01:15:00,
2013-02-21 20:21:00,25.5,13.6,30.18,North,-999,-999.0,-999.0,60,-99.99,,,-99.99,open2300-1.11,2013-02-22 01:21:00,
2013-02-21 20:26:00,25.5,13.6,30.19,North,-999,-999.0,-999.0,60,-99.99,,,-99.99,open2300-1.11,2013-02-22 01:26:00,
2013-02-21 20:32:00,25.3,13.4,30.19,North,-999,-999.0,-999.0,60,-99.99,,,-99.99,open2300-1.11,2013-02-22 01:32:00,
2013-02-21 20:37:00,25.2,13.2,30.19,North,-999,-999.0,-999.0,60,-99.99,,,-99.99,open2300-1.11,2013-02-22 01:37:00,
2013-02-21 20:43:00,25.2,13.2,30.19,North,-999,-999.0,-999.0,60,-99.99,,,-99.99,open2300-1.11,2013-02-22 01:43:00,
2013-02-21 20:48:00,25.0,13.1,30.19,North,-999,-999.0,-999.0,60,-99.99,,,-99.99,open2300-1.11,2013-02-22 01:48:00,
2013-02-21 20:54:00,25.0,13.1,30.19,North,-999,-999.0,-999.0,60,-99.99,,,-99.99,open2300-1.11,2013-02-22 01:54:00,
2013-02-21 21:00:00,24.6,12.7,30.19,North,-999,-999.0,-999.0,60,-99.99,,,-99.99,open2300-1.11,2013-02-22 02:00:00,
2013-02-21 21:06:00,24.4,12.9,30.19,North,-999,-999.0,-999.0,61,-99.99,,,-99.99,open2300-1.11,2013-02-22 02:06:00,
2013-02-21 21:11:00,24.4,12.9,30.19,North,-999,-999.0,-999.0,61,-99.99,,,-99.99,open2300-1.11,2013-02-22 02:11:00,
2013-02-21 21:17:00,24.4,12.9,30.19,North,-999,-999.0,-999.0,61,-99.99,,,-99.99,open2300-1.11,2013-02-22 02:17:00,
2013-02-21 21:22:00,24.4,12.9,30.19,North,-999,-999.0,-999.0,61,-99.99,,,-99.99,open2300-1.11,2013-02-22 02:22:00,
2013-02-21 21:28:00,24.1,12.9,30.19,North,-999,-999.0,-999.0,62,-99.99,,,-99.99,open2300-1.11,2013-02-22 02:28:00,
2013-02-21 21:33:00,24.1,12.9,30.18,North,-999,-999.0,-999.0,62,-99.99,,,-99.99,open2300-1.11,2013-02-22 02:33:00,
2013-02-21 21:39:00,24.1,12.9,30.18,North,-999,-999.0,-999.0,62,-99.99,,,-99.99,open2300-1.11,2013-02-22 02:39:00,
2013-02-21 21:44:00,23.9,12.7,30.19,North,-999,-999.0,-999.0,62,-99.99,,,-99.99,open2300-1.11,2013-02-22 02:44:00,
2013-02-21 21:50:00,23.9,12.7,30.19,North,-999,-999.0,-999.0,62,-99.99,,,-99.99,open2300-1.11,2013-02-22 02:50:00,
2013-02-21 21:55:00,23.7,12.5,30.19,North,-999,-999.0,-999.0,62,-99.99,,,-99.99,open2300-1.11,2013-02-22 02:55:00,
2013-02-21 22:00:00,23.5,12.4,30.20,North,-999,-999.0,-999.0,62,-99.99,,,-99.99,open2300-1.11,2013-02-22 03:00:00,
2013-02-21 22:06:00,23.5,12.7,30.20,North,-999,-999.0,-999.0,63,-99.99,,,-99.99,open2300-1.11,2013-02-22 03:06:00,
2013-02-21 22:11:00,23.4,12.5,30.20,North,-999,-999.0,-999.0,63,-99.99,,,-99.99,open2300-1.11,2013-02-22 03:11:00,
2013-02-21 22:17:00,23.2,12.4,30.20,North,-999,-999.0,-999.0,63,-99.99,,,-99.99,open2300-1.11,2013-02-22 03:17:00,
2013-02-21 22:22:00,23.2,12.7,30.20,North,-999,-999.0,-999.0,64,-99.99,,,-99.99,open2300-1.11,2013-02-22 03:22:00,
2013-02-21 22:28:00,23.2,12.7,30.20,North,-999,-999.0,-999.0,64,-99.99,,,-99.99,open2300-1.11,2013-02-22 03:28:00,
2013-02-21 22:33:00,22.8,12.4,30.20,North,-999,-999.0,-999.0,64,-99.99,,,-99.99,open2300-1.11,2013-02-22 03:33:00,
2013-02-21 22:39:00,22.8,12.4,30.20,North,-999,-999.0,-999.0,64,-99.99,,,-99.99,open2300-1.11,2013-02-22 03:39:00,
2013-02-21 22:45:00,22.8,12.7,30.20,North,-999,-999.0,-999.0,65,-99.99,,,-99.99,open2300-1.11,2013-02-22 03:45:00,
2013-02-21 22:50:00,22.8,12.7,30.20,North,-999,-999.0,-999.0,65,-99.99,,,-99.99,open2300-1.11,2013-02-22 03:50:00,
2013-02-21 22:56:00,22.6,12.6,30.20,North,-999,-999.0,-999.0,65,-99.99,,,-99.99,open2300-1.11,2013-02-22 03:56:00,
2013-02-21 23:01:00,22.1,12.8,30.19,North,-999,-999.0,-999.0,67,-99.99,,,-99.99,open2300-1.11,2013-02-22 04:01:00,
2013-02-21 23:02:00,22.6,12.9,30.20,North,-999,-999.0,-999.0,66,-99.99,,,-99.99,open2300-1.11,2013-02-22 04:02:00,
2013-02-21 23:03:00,22.1,12.8,30.18,North,-999,-999.0,-999.0,67,-99.99,,,-99.99,open2300-1.11,2013-02-22 04:03:00,
2013-02-21 23:05:00,22.1,12.8,30.18,North,-999,-999.0,-999.0,67,-99.99,,,-99.99,open2300-1.11,2013-02-22 04:05:00,
2013-02-21 23:06:00,22.1,12.8,30.18,North,-999,-999.0,-999.0,67,-99.99,,,-99.99,open2300-1.11,2013-02-22 04:06:00,
2013-02-21 23:07:00,22.6,12.9,30.19,North,-999,-999.0,-999.0,66,-99.99,,,-99.99,open2300-1.11,2013-02-22 04:07:00,
2013-02-21 23:08:00,22.1,12.8,30.18,North,-999,-999.0,-999.0,67,-99.99,,,-99.99,open2300-1.11,2013-02-22 04:08:00,
2013-02-21 23:09:00,22.1,12.8,30.18,North,-999,-999.0,-999.0,67,-99.99,,,-99.99,open2300-1.11,2013-02-22 04:09:00,
2013-02-21 23:10:00,22.1,13.1,30.19,North,-999,-999.0,-999.0,68,-99.99,,,-99.99,open2300-1.11,2013-02-22 04:10:00,
2013-02-21 23:11:00,22.1,13.1,30.19,North,-999,-999.0,-999.0,68,-99.99,,,-99.99,open2300-1.11,2013-02-22 04:11:00,
2013-02-21 23:13:00,22.3,13.3,30.19,North,-999,-999.0,-999.0,68,-99.99,,,-99.99,open2300-1.11,2013-02-22 04:13:00,
2013-02-21 23:14:00,22.6,12.9,30.19,North,-999,-999.0,-999.0,66,-99.99,,,-99.99,open2300-1.11,2013-02-22 04:14:00,
2013-02-21 23:16:00,22.3,13.3,30.19,North,-999,-999.0,-999.0,68,-99.99,,,-99.99,open2300-1.11,2013-02-22 04:16:00,
2013-02-21 23:17:00,22.3,13.3,30.19,North,-999,-999.0,-999.0,68,-99.99,,,-99.99,open2300-1.11,2013-02-22 04:17:00,
2013-02-21 23:18:00,22.3,13.3,30.19,North,-999,-999.0,-999.0,68,-99.99,,,-99.99,open2300-1.11,2013-02-22 04:18:00,
2013-02-21 23:19:00,22.6,12.9,30.18,North,-999,-999.0,-999.0,66,-99.99,,,-99.99,open2300-1.11,2013-02-22 04:19:00,
2013-02-21 23:20:00,22.3,13.3,30.19,North,-999,-999.0,-999.0,68,-99.99,,,-99.99,open2300-1.11,2013-02-22 04:20:00,
2013-02-21 23:21:00,22.1,13.1,30.19,North,-999,-999.0,-999.0,68,-99.99,,,-99.99,open2300-1.11,2013-02-22 04:21:00,
2013-02-21 23:22:00,22.1,13.1,30.19,North,-999,-999.0,-999.0,68,-99.99,,,-99.99,open2300-1.11,2013-02-22 04:22:00,
2013-02-21 23:24:00,22.1,13.1,30.19,North,-999,-999.0,-999.0,68,-99.99,,,-99.99,open2300-1.11,2013-02-22 04:24:00,
2013-02-21 23:25:00,22.6,12.9,30.19,North,-999,-999.0,-999.0,66,-99.99,,,-99.99,open2300-1.11,2013-02-22 04:25:00,
2013-02-21 23:27:00,22.1,13.1,30.19,North,-999,-999.0,-999.0,68,-99.99,,,-99.99,open2300-1.11,2013-02-22 04:27:00,
2013-02-21 23:28:00,22.1,13.1,30.19,North,-999,-999.0,-999.0,68,-99.99,,,-99.99,open2300-1.11,2013-02-22 04:28:00,
2013-02-21 23:29:00,22.1,13.1,30.20,North,-999,-999.0,-999.0,68,-99.99,,,-99.99,open2300-1.11,2013-02-22 04:29:00,
2013-02-21 23:30:00,22.5,12.8,30.19,North,-999,-999.0,-999.0,66,-99.99,,,-99.99,open2300-1.11,2013-02-22 04:30:00,
2013-02-21 23:31:00,22.1,13.1,30.20,North,-999,-999.0,-999.0,68,-99.99,,,-99.99,open2300-1.11,2013-02-22 04:31:00,
2013-02-21 23:32:00,21.9,12.9,30.21,North,-999,-999.0,-999.0,68,-99.99,,,-99.99,open2300-1.11,2013-02-22 04:32:00,
2013-02-21 23:33:00,21.9,12.9,30.21,North,-999,-999.0,-999.0,68,-99.99,,,-99.99,open2300-1.11,2013-02-22 04:33:00,
2013-02-21 23:35:00,21.9,12.9,30.21,North,-999,-999.0,-999.0,68,-99.99,,,-99.99,open2300-1.11,2013-02-22 04:35:00,
2013-02-21 23:36:00,22.3,12.6,30.19,North,-999,-999.0,-999.0,66,-99.99,,,-99.99,open2300-1.11,2013-02-22 04:36:00,
2013-02-21 23:38:00,21.9,12.9,30.21,North,-999,-999.0,-999.0,68,-99.99,,,-99.99,open2300-1.11,2013-02-22 04:38:00,
2013-02-21 23:39:00,21.9,12.9,30.21,North,-999,-999.0,-999.0,68,-99.99,,,-99.99,open2300-1.11,2013-02-22 04:39:00,
2013-02-21 23:40:00,21.7,12.8,30.21,North,-999,-999.0,-999.0,68,-99.99,,,-99.99,open2300-1.11,2013-02-22 04:40:00,
2013-02-21 23:41:00,21.7,12.8,30.21,North,-999,-999.0,-999.0,68,-99.99,,,-99.99,open2300-1.11,2013-02-22 04:41:00,
2013-02-21 23:42:00,22.3,12.9,30.20,North,-999,-999.0,-999.0,67,-99.99,,,-99.99,open2300-1.11,2013-02-22 04:42:00,
2013-02-21 23:43:00,21.7,12.8,30.21,North,-999,-999.0,-999.0,68,-99.99,,,-99.99,open2300-1.11,2013-02-22 04:43:00,
2013-02-21 23:44:00,21.7,12.8,30.21,North,-999,-999.0,-999.0,68,-99.99,,,-99.99,open2300-1.11,2013-02-22 04:44:00,
2013-02-21 23:45:00,21.7,12.8,30.21,North,-999,-999.0,-999.0,68,-99.99,,,-99.99,open2300-1.11,2013-02-22 04:45:00,
2013-02-21 23:46:00,21.7,13.1,30.21,North,-999,-999.0,-999.0,69,-99.99,,,-99.99,open2300-1.11,2013-02-22 04:46:00,
2013-02-21 23:47:00,22.3,12.9,30.20,North,-999,-999.0,-999.0,67,-99.99,,,-99.99,open2300-1.11,2013-02-22 04:47:00,
2013-02-21 23:48:00,21.7,13.1,30.21,North,-999,-999.0,-999.0,69,-99.99,,,-99.99,open2300-1.11,2013-02-22 04:48:00,
2013-02-21 23:49:00,21.7,13.1,30.21,North,-999,-999.0,-999.0,69,-99.99,,,-99.99,open2300-1.11,2013-02-22 04:49:00,
2013-02-21 23:51:00,21.7,13.1,30.21,North,-999,-999.0,-999.0,69,-99.99,,,-99.99,open2300-1.11,2013-02-22 04:51:00,
2013-02-21 23:52:00,22.1,12.8,30.20,North,-999,-999.0,-999.0,67,-99.99,,,-99.99,open2300-1.11,2013-02-22 04:52:00,
2013-02-21 23:53:00,21.6,12.9,30.20,North,-999,-999.0,-999.0,69,-99.99,,,-99.99,open2300-1.11,2013-02-22 04:53:00,
2013-02-21 23:55:00,21.4,12.7,30.21,North,-999,-999.0,-999.0,69,-99.99,,,-99.99,open2300-1.11,2013-02-22 04:55:00,
2013-02-21 23:56:00,21.4,12.7,30.20,North,-999,-999.0,-999.0,69,-99.99,,,-99.99,open2300-1.11,2013-02-22 04:56:00,
2013-02-21 23:58:00,22.1,12.8,30.19,North,-999,-999.0,-999.0,67,-99.99,,,-99.99,open2300-1.11,2013-02-22 04:58:00,
2013-02-21 23:59:00,21.4,12.7,30.20,North,-999,-999.0,-999.0,69,-99.99,,,-99.99,open2300-1.11,2013-02-22 04:59:00,